Johann Essberger — CQKG — position and weather

sailwx.info

Track history (hours):
 
Tides and Currents Weather Stations Pressure Air Temp Water Temp Dewpoint Dewpoint Depression Visibility Wind Speed Wind Dir Waves Ship Positions

Johann Essberger

Last reported at 2015-May-22 10:32 UTC. Time now 2015-May-23 05:47 UTC.
Position N 53°52' E 000°56'.

Length 98 m; draft 5.6 m.

Type: Tanker. MMSI: 255804460.

Date/timePositionNaut miles runAvg speedWind from/ knotsBaromVisibWave heightAir tempDewpointWater temp
2015-May-22 10:32N 53°52' E 000°56'8 8.6
2015-May-22 09:33N 53°51' E 000°42'1211.2
2015-May-22 08:29N 53°42' E 000°28'1010.6
2015-May-22 07:33N 53°34' E 000°18'1010.1
2015-May-22 06:34N 53°35' E 000°01'10 9.7
2015-May-22 05:34N 53°40' W 000°13'5 4.6
2015-May-22 04:33N 53°45' W 000°16'0 0.0
2015-May-22 03:33N 53°45' W 000°16'0 0.0
2015-May-21 20:21N 53°45' W 000°16'1 0.7
2015-May-21 19:33N 53°45' W 000°15'0 0.0
2015-May-21 18:33N 53°45' W 000°15'0 0.0
2015-May-20 19:34N 53°45' W 000°15'1 0.7
2015-May-20 18:33N 53°44' W 000°17'7 6.9
2015-May-20 17:33N 53°38' W 000°11'10 9.6
2015-May-20 16:33N 53°35' E 000°04'9 9.0
2015-May-20 15:33N 53°33' E 000°19'9 8.8
2015-May-20 14:33N 53°36' E 000°34'2 1.8
2015-May-20 13:34N 53°34' E 000°33'166 8.7
2015-May-19 18:32N 54°06' E 005°10'8 8.2
2015-May-19 17:31N 54°07' E 005°24'8 8.6
2015-May-19 16:33N 54°08' E 005°38'44 8.5
2015-May-19 11:23N 54°12' E 006°52'7 8.0
2015-May-19 10:34N 54°12' E 007°04'8 7.9
2015-May-19 09:34N 54°12' E 007°17'8 7.4
2015-May-19 08:33N 54°12' E 007°30'8 7.6
2015-May-19 07:33N 54°10' E 007°42'9 8.9
2015-May-19 06:33N 54°05' E 007°55'1010.2
2015-May-19 05:33N 54°01' E 008°11'1514.4
2015-May-19 04:31N 53°58' E 008°36'1414.3
2015-May-19 03:33N 53°51' E 008°56'8 8.1
2015-May-19 02:34N 53°54' E 009°09'2 2.2
2015-May-19 01:33N 53°55' E 009°11'6 5.8
2015-May-19 00:34N 53°60' E 009°17'6 5.9
2015-May-18 23:33N 54°05' E 009°20'8 7.4
2015-May-18 22:27N 54°11' E 009°30'8 7.6
2015-May-18 21:21N 54°17' E 009°39'5 6.1
2015-May-18 20:33N 54°21' E 009°45'6 6.3
2015-May-18 19:33N 54°20' E 009°56'6 6.4
2015-May-18 18:33N 54°22' E 010°07'0 0.5
2015-May-18 17:31N 54°22' E 010°08'1 1.5
2015-May-18 16:31N 54°22' E 010°10'1 0.8
2015-May-18 15:33N 54°23' E 010°11'0 0.0
2015-May-18 14:33N 54°23' E 010°11'0 0.3
2015-May-18 13:33N 54°23' E 010°11'1010.4
2015-May-18 12:33N 54°31' E 010°22'10 9.7
2015-May-18 11:32N 54°35' E 010°38'1010.1
2015-May-18 10:31N 54°36' E 010°56'9 9.7
2015-May-18 09:33N 54°36' E 011°12'1010.0
2015-May-18 08:33N 54°31' E 011°28'10 9.9
2015-May-18 07:33N 54°27' E 011°43'9 9.3
2015-May-18 06:33N 54°26' E 011°59'9 8.3
2015-May-18 05:30N 54°31' E 012°12'98 8.6
2015-May-17 18:08N 54°41' E 015°00'6 9.6
2015-May-17 17:33N 54°42' E 015°10'114 7.9
2015-May-17 03:08N 54°57' E 018°26'5 8.7
2015-May-17 02:33N 54°57' E 018°35'9 9.1
2015-May-17 01:33N 54°54' E 018°50'1010.2
2015-May-17 00:33N 54°51' E 019°07'1110.5
2015-May-16 23:33N 54°48' E 019°24'1310.3
2015-May-16 22:20N 54°42' E 019°43'10 0.5
2015-May-16 01:33N 54°38' E 019°58'7 5.6
2015-May-16 00:20N 54°40' E 019°47'0 0.0
2015-May-15 23:28N 54°40' E 019°47'0 0.1
2015-May-15 22:33N 54°40' E 019°47'9 8.7
2015-May-15 21:33N 54°46' E 019°37'1212.4
2015-May-15 20:33N 54°59' E 019°37'  
Track history (hours):
 
Tides and Currents Weather Stations Pressure Air Temp Water Temp Dewpoint Dewpoint Depression Visibility Wind Speed Wind Dir Waves Ship Positions

Johann Essberger

Last reported at 2015-May-22 10:32 UTC. Time now 2015-May-23 05:47 UTC.
Position N 53°52' E 000°56'.

Length 98 m; draft 5.6 m.

Type: Tanker. MMSI: 255804460.

Date/timePositionNaut miles runAvg speedWind from/ knotsBaromVisibWave heightAir tempDewpointWater temp
2015-May-22 10:32N 53°52' E 000°56'8 8.6
2015-May-22 09:33N 53°51' E 000°42'1211.2
2015-May-22 08:29N 53°42' E 000°28'1010.6
2015-May-22 07:33N 53°34' E 000°18'1010.1
2015-May-22 06:34N 53°35' E 000°01'10 9.7
2015-May-22 05:34N 53°40' W 000°13'5 4.6
2015-May-22 04:33N 53°45' W 000°16'0 0.0
2015-May-22 03:33N 53°45' W 000°16'0 0.0
2015-May-21 20:21N 53°45' W 000°16'1 0.7
2015-May-21 19:33N 53°45' W 000°15'0 0.0
2015-May-21 18:33N 53°45' W 000°15'0 0.0
2015-May-20 19:34N 53°45' W 000°15'1 0.7
2015-May-20 18:33N 53°44' W 000°17'7 6.9
2015-May-20 17:33N 53°38' W 000°11'10 9.6
2015-May-20 16:33N 53°35' E 000°04'9 9.0
2015-May-20 15:33N 53°33' E 000°19'9 8.8
2015-May-20 14:33N 53°36' E 000°34'2 1.8
2015-May-20 13:34N 53°34' E 000°33'166 8.7
2015-May-19 18:32N 54°06' E 005°10'8 8.2
2015-May-19 17:31N 54°07' E 005°24'8 8.6
2015-May-19 16:33N 54°08' E 005°38'44 8.5
2015-May-19 11:23N 54°12' E 006°52'7 8.0
2015-May-19 10:34N 54°12' E 007°04'8 7.9
2015-May-19 09:34N 54°12' E 007°17'8 7.4
2015-May-19 08:33N 54°12' E 007°30'8 7.6
2015-May-19 07:33N 54°10' E 007°42'9 8.9
2015-May-19 06:33N 54°05' E 007°55'1010.2
2015-May-19 05:33N 54°01' E 008°11'1514.4
2015-May-19 04:31N 53°58' E 008°36'1414.3
2015-May-19 03:33N 53°51' E 008°56'8 8.1
2015-May-19 02:34N 53°54' E 009°09'2 2.2
2015-May-19 01:33N 53°55' E 009°11'6 5.8
2015-May-19 00:34N 53°60' E 009°17'6 5.9
2015-May-18 23:33N 54°05' E 009°20'8 7.4
2015-May-18 22:27N 54°11' E 009°30'8 7.6
2015-May-18 21:21N 54°17' E 009°39'5 6.1
2015-May-18 20:33N 54°21' E 009°45'6 6.3
2015-May-18 19:33N 54°20' E 009°56'6 6.4
2015-May-18 18:33N 54°22' E 010°07'0 0.5
2015-May-18 17:31N 54°22' E 010°08'1 1.5
2015-May-18 16:31N 54°22' E 010°10'1 0.8
2015-May-18 15:33N 54°23' E 010°11'0 0.0
2015-May-18 14:33N 54°23' E 010°11'0 0.3
2015-May-18 13:33N 54°23' E 010°11'1010.4
2015-May-18 12:33N 54°31' E 010°22'10 9.7
2015-May-18 11:32N 54°35' E 010°38'1010.1
2015-May-18 10:31N 54°36' E 010°56'9 9.7
2015-May-18 09:33N 54°36' E 011°12'1010.0
2015-May-18 08:33N 54°31' E 011°28'10 9.9
2015-May-18 07:33N 54°27' E 011°43'9 9.3
2015-May-18 06:33N 54°26' E 011°59'9 8.3
2015-May-18 05:30N 54°31' E 012°12'98 8.6
2015-May-17 18:08N 54°41' E 015°00'6 9.6
2015-May-17 17:33N 54°42' E 015°10'114 7.9
2015-May-17 03:08N 54°57' E 018°26'5 8.7
2015-May-17 02:33N 54°57' E 018°35'9 9.1
2015-May-17 01:33N 54°54' E 018°50'1010.2
2015-May-17 00:33N 54°51' E 019°07'1110.5
2015-May-16 23:33N 54°48' E 019°24'1310.3
2015-May-16 22:20N 54°42' E 019°43'10 0.5
2015-May-16 01:33N 54°38' E 019°58'7 5.6
2015-May-16 00:20N 54°40' E 019°47'0 0.0
2015-May-15 23:28N 54°40' E 019°47'0 0.1
2015-May-15 22:33N 54°40' E 019°47'9 8.7
2015-May-15 21:33N 54°46' E 019°37'1212.4
2015-May-15 20:33N 54°59' E 019°37'  

Dump ship's entire track history